createdAt,value
2024-04-09T00:00:42.626Z,99657.58
2024-04-09T00:06:16.059Z,99660.39
2024-04-09T00:11:23.912Z,99650.48
2024-04-09T00:16:30.035Z,99658.02
2024-04-09T00:21:34.071Z,99672.76
2024-04-09T00:26:37.351Z,99675.20
2024-04-09T00:31:40.290Z,99669.63
2024-04-09T00:36:43.298Z,99668.20
2024-04-09T00:41:46.726Z,99662.64
2024-04-09T00:46:49.627Z,99667.91
2024-04-09T00:51:54.117Z,99667.45
2024-04-09T00:56:57.907Z,99665.89
2024-04-09T01:02:05.480Z,99670.52
2024-04-09T01:07:09.055Z,99673.89
2024-04-09T01:12:11.950Z,99671.69
2024-04-09T01:17:15.062Z,99667.77
2024-04-09T01:22:18.269Z,99663.91
2024-04-09T01:27:23.656Z,99671.93
2024-04-09T01:32:26.748Z,99677.33
2024-04-09T01:37:29.781Z,99678.81
2024-04-09T01:42:33.064Z,99679.30
2024-04-09T01:47:36.155Z,99675.25
2024-04-09T01:52:41.937Z,99673.88
2024-04-09T01:57:45.609Z,99678.05
2024-04-09T02:02:53.734Z,99674.23
2024-04-09T02:07:57.220Z,99679.36
2024-04-09T02:13:00.140Z,99674.91
2024-04-09T02:18:03.446Z,99678.37
2024-04-09T02:23:06.386Z,99672.52
2024-04-09T02:28:09.704Z,99669.40
2024-04-09T02:33:14.487Z,99669.64
2024-04-09T02:38:17.553Z,99667.64
2024-04-09T02:43:22.519Z,99666.39
2024-04-09T02:48:26.164Z,99670.84
2024-04-09T02:53:29.186Z,99670.09
2024-04-09T02:58:33.453Z,99672.17
2024-04-09T03:03:37.535Z,99666.85
2024-04-09T03:08:42.261Z,99664.39
2024-04-09T03:13:47.333Z,99673.13
2024-04-09T03:18:52.210Z,99673.73
2024-04-09T03:23:55.593Z,99681.29
2024-04-09T03:28:58.620Z,99680.87
2024-04-09T03:34:02.081Z,99679.67
2024-04-09T03:39:05.799Z,99686.71
2024-04-09T03:44:09.031Z,99692.27
2024-04-09T03:49:12.209Z,99688.69
2024-04-09T03:54:15.523Z,99693.10
2024-04-09T03:59:18.546Z,99697.23
2024-04-09T04:04:22.205Z,99702.36
2024-04-09T04:09:25.406Z,99703.58
2024-04-09T04:14:28.906Z,99703.32
2024-04-09T04:19:31.854Z,99705.55
2024-04-09T04:24:34.971Z,99712.63
2024-04-09T04:29:40.311Z,99706.90
2024-04-09T04:34:44.442Z,99706.97
2024-04-09T04:39:47.901Z,99715.13
2024-04-09T04:44:50.993Z,99721.09
2024-04-09T04:49:54.032Z,99723.38
2024-04-09T04:54:58.712Z,99729.39
2024-04-09T05:00:10.469Z,99730.30
2024-04-09T05:05:13.861Z,99736.11
2024-04-09T05:10:18.229Z,99737.50
2024-04-09T05:15:21.719Z,99738.33
2024-04-09T05:20:28.400Z,99739.69
2024-04-09T05:25:33.684Z,99736.97
2024-04-09T05:30:36.909Z,99738.95
2024-04-09T05:35:39.844Z,99737.39
2024-04-09T05:40:42.784Z,99729.09
2024-04-09T05:45:45.810Z,99726.45
2024-04-09T05:50:48.814Z,99726.99
2024-04-09T05:55:56.105Z,99724.16
2024-04-09T06:01:00.533Z,99730.07
2024-04-09T06:06:03.935Z,99731.75
2024-04-09T06:11:06.875Z,99730.32
2024-04-09T06:16:09.762Z,99728.77
2024-04-09T06:21:13.222Z,99725.83
2024-04-09T06:26:19.801Z,99721.75
2024-04-09T06:31:22.760Z,99721.65
2024-04-09T06:36:27.873Z,99723.68
2024-04-09T06:41:32.156Z,99724.95
2024-04-09T06:46:35.063Z,99731.02
2024-04-09T06:51:38.053Z,99732.94
2024-04-09T06:56:40.911Z,99729.25
2024-04-09T07:01:43.973Z,99723.52
2024-04-09T07:06:47.338Z,99725.38
2024-04-09T07:11:50.232Z,99727.84
2024-04-09T07:16:53.288Z,99726.60
2024-04-09T07:21:56.419Z,99724.52
2024-04-09T07:26:59.342Z,99718.02
2024-04-09T07:32:03.566Z,99720.02
2024-04-09T07:37:06.501Z,99714.23
2024-04-09T07:42:09.400Z,99711.47
2024-04-09T07:47:12.464Z,99716.48
2024-04-09T07:52:15.492Z,99716.08
2024-04-09T07:57:18.785Z,99724.98
2024-04-09T08:02:21.708Z,99724.67
2024-04-09T08:07:26.639Z,99731.15
2024-04-09T08:12:29.808Z,99733.60
2024-04-09T08:17:33.090Z,99735.48
2024-04-09T08:22:36.361Z,99733.95
2024-04-09T08:27:40.149Z,99724.48
2024-04-09T08:32:43.519Z,99716.58
2024-04-09T08:37:48.068Z,99711.70
2024-04-09T08:42:57.852Z,99707.63
2024-04-09T08:48:06.352Z,99703.98
2024-04-09T08:53:09.502Z,99703.04
2024-04-09T08:58:13.582Z,99695.32
2024-04-09T09:03:16.868Z,99692.95
2024-04-09T09:08:19.968Z,99691.72
2024-04-09T09:13:22.996Z,99692.48
2024-04-09T09:18:26.335Z,99694.20
2024-04-09T09:23:29.628Z,99691.27
2024-04-09T09:28:32.619Z,99688.58
2024-04-09T09:33:40.468Z,99690.20
2024-04-09T09:38:45.525Z,99685.83
2024-04-09T09:43:48.616Z,99686.77
2024-04-09T09:48:54.742Z,99687.96
2024-04-09T09:53:57.820Z,99685.84
2024-04-09T09:59:02.611Z,99689.98
2024-04-09T10:04:05.771Z,99689.58
2024-04-09T10:09:09.360Z,99689.89
2024-04-09T10:14:25.507Z,99694.27
2024-04-09T10:19:36.187Z,99691.21
2024-04-09T10:24:40.319Z,99690.86
2024-04-09T10:29:53.084Z,99685.93
2024-04-09T10:34:56.386Z,99683.25
2024-04-09T10:40:00.180Z,99687.89
2024-04-09T10:45:05.597Z,99689.83
2024-04-09T10:50:10.150Z,99688.90
2024-04-09T10:55:15.043Z,99686.33
2024-04-09T11:00:19.348Z,99689.11
2024-04-09T11:05:22.375Z,99691.19
2024-04-09T11:10:25.386Z,99691.82
2024-04-09T11:15:28.383Z,99697.27
2024-04-09T11:20:31.308Z,99693.29
2024-04-09T11:25:36.912Z,99689.20
2024-04-09T11:30:43.598Z,99687.42
2024-04-09T11:35:53.137Z,99687.79
2024-04-09T11:40:56.128Z,99686.52
2024-04-09T11:46:03.597Z,99688.27
2024-04-09T11:51:06.551Z,99682.77
2024-04-09T11:56:09.541Z,99685.11
2024-04-09T12:01:12.623Z,99680.59
2024-04-09T12:06:15.806Z,99677.63
2024-04-09T12:11:21.980Z,99674.96
2024-04-09T12:16:25.714Z,99667.27
2024-04-09T12:21:29.081Z,99658.40
2024-04-09T12:26:32.026Z,99648.63
2024-04-09T12:31:35.059Z,99647.91
2024-04-09T12:36:38.609Z,99648.13
2024-04-09T12:41:42.335Z,99640.69
2024-04-09T12:46:45.508Z,99632.86
2024-04-09T12:51:48.891Z,99630.24
2024-04-09T12:56:52.233Z,99633.02
2024-04-09T13:01:55.333Z,99630.08
2024-04-09T13:06:59.910Z,99628.02
2024-04-09T13:12:03.433Z,99621.55
2024-04-09T13:17:08.416Z,99623.21
2024-04-09T13:22:11.977Z,99628.55
2024-04-09T13:27:16.302Z,99630.27
2024-04-09T13:32:20.976Z,99626.52
2024-04-09T13:37:23.950Z,99621.11
2024-04-09T13:42:26.891Z,99620.39
2024-04-09T13:47:29.896Z,99619.55
2024-04-09T13:52:36.422Z,99617.64
2024-04-09T13:57:39.367Z,99613.69
2024-04-09T14:02:43.570Z,99613.48
2024-04-09T14:07:47.486Z,99609.32
2024-04-09T14:12:50.447Z,99603.77
2024-04-09T14:17:56.584Z,99601.42
2024-04-09T14:22:59.673Z,99598.06
2024-04-09T14:28:02.535Z,99595.38
2024-04-09T14:33:05.559Z,99596.09
2024-04-09T14:38:10.017Z,99597.80
2024-04-09T14:43:13.297Z,99592.53
2024-04-09T14:48:16.543Z,99590.57
2024-04-09T14:53:19.691Z,99586.10
2024-04-09T14:58:22.671Z,99585.15
2024-04-09T15:03:25.544Z,99580.05
2024-04-09T15:08:30.502Z,99584.95
2024-04-09T15:13:33.561Z,99588.14
2024-04-09T15:18:36.805Z,99588.11
2024-04-09T15:23:42.080Z,99590.97
2024-04-09T15:28:47.982Z,99595.89
2024-04-09T15:33:54.431Z,99596.61
2024-04-09T15:39:00.537Z,99600.02
2024-04-09T15:44:04.887Z,99601.01
2024-04-09T15:49:08.140Z,99600.86
2024-04-09T15:54:11.392Z,99594.77
2024-04-09T15:59:15.246Z,99595.15
2024-04-09T16:04:18.247Z,99591.23
2024-04-09T16:09:21.510Z,99589.34
2024-04-09T16:14:24.716Z,99590.63
2024-04-09T16:19:28.568Z,99585.80
2024-04-09T16:24:32.435Z,99576.60
2024-04-09T16:29:35.651Z,99581.92
2024-04-09T16:34:39.857Z,99581.02
2024-04-09T16:39:44.311Z,99579.77
2024-04-09T16:44:47.892Z,99578.16
2024-04-09T16:49:51.525Z,99582.45
2024-04-09T16:54:54.719Z,99583.12
2024-04-09T16:59:57.955Z,99582.73
2024-04-09T17:05:01.347Z,99581.47
2024-04-09T17:10:11.228Z,99583.54
2024-04-09T17:15:16.342Z,99586.05
2024-04-09T17:20:20.801Z,99586.26
2024-04-09T17:25:24.519Z,99587.27
2024-04-09T17:30:28.282Z,99592.94
2024-04-09T17:35:34.462Z,99595.73
2024-04-09T17:40:37.832Z,99599.80
2024-04-09T17:45:41.056Z,99599.73
2024-04-09T17:50:44.031Z,99605.37
2024-04-09T17:55:46.958Z,99607.10
2024-04-09T18:00:50.629Z,99607.34
2024-04-09T18:05:59.410Z,99617.02
2024-04-09T18:11:04.506Z,99624.74
2024-04-09T18:16:12.818Z,99624.35
2024-04-09T18:21:15.938Z,99625.56
2024-04-09T18:26:21.480Z,99627.98
2024-04-09T18:31:25.792Z,99628.52
2024-04-09T18:36:28.662Z,99629.21
2024-04-09T18:41:31.754Z,99629.98
2024-04-09T18:46:34.855Z,99631.05
2024-04-09T18:51:37.985Z,99630.55
2024-04-09T18:56:43.521Z,99626.42
2024-04-09T19:01:46.483Z,99627.61
2024-04-09T19:06:49.429Z,99624.77
2024-04-09T19:11:58.178Z,99622.34
2024-04-09T19:17:02.255Z,99626.71
2024-04-09T19:22:05.524Z,99621.23
2024-04-09T19:27:10.063Z,99622.08
2024-04-09T19:32:13.055Z,99619.23
2024-04-09T19:37:17.234Z,99619.58
2024-04-09T19:42:24.157Z,99626.67
2024-04-09T19:47:27.258Z,99623.05
2024-04-09T19:52:30.290Z,99618.29
2024-04-09T19:57:33.223Z,99616.90
2024-04-09T20:02:38.720Z,99618.42
2024-04-09T20:07:41.802Z,99614.11
2024-04-09T20:12:45.145Z,99618.86
2024-04-09T20:17:48.237Z,99623.09
2024-04-09T20:22:51.790Z,99622.59
2024-04-09T20:27:54.959Z,99612.73
2024-04-09T20:32:58.404Z,99611.45
2024-04-09T20:38:01.455Z,99609.30
2024-04-09T20:43:07.238Z,99607.09
2024-04-09T20:48:10.764Z,99605.30
2024-04-09T20:53:14.295Z,99606.10
2024-04-09T20:58:17.182Z,99621.96
2024-04-09T21:03:20.182Z,99613.80
2024-04-09T21:08:23.747Z,99610.95
2024-04-09T21:13:26.674Z,99617.11
2024-04-09T21:18:30.093Z,99616.87
2024-04-09T21:23:33.593Z,99616.98
2024-04-09T21:28:36.659Z,99616.69
2024-04-09T21:33:39.843Z,99619.20
2024-04-09T21:38:42.869Z,99619.20
2024-04-09T21:43:45.957Z,99626.33
2024-04-09T21:48:49.178Z,99624.27
2024-04-09T21:53:53.574Z,99625.08
2024-04-09T21:58:56.814Z,99623.20
2024-04-09T22:04:00.056Z,99622.92
2024-04-09T22:09:03.121Z,99626.23
2024-04-09T22:14:06.288Z,99630.67
2024-04-09T22:19:09.833Z,99629.69
2024-04-09T22:24:13.424Z,99637.02
2024-04-09T22:29:16.409Z,99639.99
2024-04-09T22:34:20.652Z,99639.36
2024-04-09T22:39:23.703Z,99639.85
2024-04-09T22:44:26.780Z,99638.06
2024-04-09T22:49:30.240Z,99640.38
2024-04-09T22:54:33.540Z,99647.23
2024-04-09T22:59:36.567Z,99649.92
2024-04-09T23:04:39.811Z,99650.19
2024-04-09T23:09:45.062Z,99650.61
2024-04-09T23:14:51.388Z,99648.64
2024-04-09T23:19:54.893Z,99649.52
2024-04-09T23:24:57.975Z,99651.19
2024-04-09T23:30:00.887Z,99658.70
2024-04-09T23:35:04.258Z,99659.45
2024-04-09T23:40:08.108Z,99667.86
2024-04-09T23:45:11.002Z,99668.52
2024-04-09T23:50:14.090Z,99673.52
2024-04-09T23:55:17.131Z,99674.11
